Moorhead, MN

10:48 AM CDT on June 27, 2017 (GMT -0500)
Moorhead Municipal

Weather History for KJKJ - March, 2013

Change the Weather History Date:

Tuesday, March 12, 2013

  Actual Average (KFAR) Record (KFAR)
Temperature  
Mean Temperature 16 °F -  
Max Temperature 23 °F 32 °F 66 °F (2016)
Min Temperature 8 °F 16 °F -25 °F (1896)
Degree Days  
Heating Degree Days 48    
Moisture  
Dew Point 17 °F    
Average Humidity 96    
Maximum Humidity 100    
Minimum Humidity 86    
Precipitation  
Precipitation 0.00 in - - ()
Sea Level Pressure  
Sea Level Pressure 30.10 in    
Wind  
Wind Speed 11 mph (NNW)    
Max Wind Speed 25 mph    
Max Gust Speed 29 mph    
Visibility 6 miles    
Events Snow    
Averages and records for this station are not official NWS values.
T = Trace of Precipitation, MM = Missing Value Source: NWS Daily Summary

Daily Weather History Graph

Daily Weather History Graph

Search for Another Location

Airport or City:

Trip Planner

Search our weather history database for the weather conditions in past years. The results will help you decide how hot, cold, wet, or windy it might be!

Date:

Astronomy

Mar. 12, 2013 Rise Set
Actual Time 7:44 AM CDT 7:28 PM CDT
Civil Twilight 7:14 AM CDT 7:58 PM CDT
Nautical Twilight 6:39 AM CDT 8:34 PM CDT
Astronomical Twilight 6:03 AM CDT 9:10 PM CDT
Moon 7:46 AM CDT (3/12) 8:52 PM CDT (3/12)
Length of Visible Light 12h 44m
Length of Day
11h 43m
New Moon, 1% of the Moon is Illuminated
Mar 12
New Moon
Mar 19
First Quarter
Mar 27
Full
Apr 2
Last Quarter
Apr 10
New

Hourly Weather History & Observations

Time (CDT) Temp. Windchill Dew Point Humidity Pressure Visibility Wind Dir Wind Speed Gust Speed Precip Events Conditions
12:14 AM 17.6 °F - 17.6 °F 100% 29.87 in 2.5 mi Calm Calm - N/A   Overcast
12:35 AM 17.6 °F - 17.6 °F 100% 29.88 in 1.8 mi Calm Calm - N/A   Overcast
12:54 AM 17.6 °F 12.3 °F 17.6 °F 100% 29.89 in 2.5 mi North 3.5 mph - N/A Snow Light Snow
1:15 AM 17.6 °F 10.7 °F 17.6 °F 100% 29.89 in 3.0 mi North 4.6 mph - N/A Snow Light Snow
1:35 AM 17.6 °F 9.3 °F 17.6 °F 100% 29.89 in 3.0 mi NNW 5.8 mph - N/A Snow Light Snow
1:54 AM 17.6 °F 8.2 °F 17.6 °F 100% 29.90 in 4.0 mi NNW 6.9 mph - N/A   Overcast
2:15 AM 17.6 °F 8.2 °F 17.6 °F 100% 29.90 in 4.0 mi NNW 6.9 mph - N/A   Overcast
2:34 AM 17.6 °F 8.2 °F 17.6 °F 100% 29.90 in 3.0 mi NNW 6.9 mph - N/A Snow Light Snow
2:54 AM 17.6 °F 7.3 °F 17.6 °F 100% 29.91 in 3.0 mi NNW 8.1 mph - N/A Snow Light Snow
3:15 AM 17.6 °F 6.4 °F 17.6 °F 100% 29.92 in 3.0 mi NNW 9.2 mph - N/A Snow Light Snow
3:34 AM 17.6 °F 5.7 °F 17.6 °F 100% 29.92 in 2.5 mi NNW 10.4 mph - N/A Snow Light Snow
3:55 AM 17.6 °F 5.7 °F 17.6 °F 100% 29.93 in 3.0 mi NNW 10.4 mph - N/A Snow Light Snow
4:15 AM 17.6 °F 5.0 °F 17.6 °F 100% 29.93 in 2.5 mi NNW 11.5 mph - N/A Snow Light Snow
4:34 AM 17.6 °F 5.0 °F 17.6 °F 100% 29.94 in 3.0 mi NNW 11.5 mph - N/A Snow Light Snow
4:55 AM 17.6 °F 5.7 °F 17.6 °F 100% 29.95 in 7.0 mi NNW 10.4 mph - N/A Snow Light Snow
5:14 AM 17.6 °F 5.0 °F 17.6 °F 100% 29.95 in 4.0 mi NNW 11.5 mph - N/A   Overcast
5:35 AM 17.6 °F 5.0 °F 17.6 °F 100% 29.96 in 7.0 mi NNW 11.5 mph - N/A   Overcast
5:55 AM 17.6 °F 5.0 °F 17.6 °F 100% 29.97 in 5.0 mi NNW 11.5 mph - N/A   Overcast
6:14 AM 17.6 °F 4.3 °F 17.6 °F 100% 29.98 in 3.0 mi NNW 12.7 mph - N/A   Overcast
6:35 AM 17.6 °F 3.7 °F 17.6 °F 100% 29.99 in 3.0 mi NNW 13.8 mph - N/A   Overcast
6:55 AM 17.6 °F 3.7 °F 17.6 °F 100% 30.00 in 3.0 mi NNW 13.8 mph - N/A   Overcast
7:14 AM 17.6 °F 3.7 °F 17.6 °F 100% 30.01 in 2.5 mi NNW 13.8 mph - N/A   Overcast
7:35 AM 17.6 °F 3.7 °F 17.6 °F 100% 30.01 in 2.5 mi NNW 13.8 mph - N/A Snow Light Snow
7:54 AM 17.6 °F 3.7 °F 17.6 °F 100% 30.02 in 2.5 mi NNW 13.8 mph - N/A   Overcast
8:35 AM 17.6 °F 2.7 °F 17.6 °F 100% 30.04 in 4.0 mi NW 16.1 mph - N/A   Mostly Cloudy
8:54 AM 17.6 °F 2.7 °F 17.6 °F 100% 30.04 in 4.0 mi NNW 16.1 mph - N/A   Overcast
9:15 AM 17.6 °F 1.7 °F 17.6 °F 100% 30.06 in 3.0 mi NNW 18.4 mph 25.3 mph N/A   Mostly Cloudy
9:35 AM 17.6 °F 1.7 °F 17.6 °F 100% 30.06 in 5.0 mi NNW 18.4 mph - N/A   Scattered Clouds
9:54 AM 17.6 °F 1.7 °F 17.6 °F 100% 30.07 in 7.0 mi NNW 18.4 mph - N/A   Clear
10:15 AM 17.6 °F 2.2 °F 17.6 °F 100% 30.07 in 7.0 mi NNW 17.3 mph - N/A   Clear
10:34 AM 19.4 °F 4.5 °F 17.6 °F 93% 30.08 in 7.0 mi NNW 17.3 mph - N/A   Clear
10:54 AM 19.4 °F 3.6 °F 17.6 °F 93% 30.09 in 10.0 mi NNW 19.6 mph 23.0 mph N/A   Clear
11:15 AM 17.6 °F 1.3 °F 17.6 °F 100% 30.10 in 7.0 mi NNW 19.6 mph - N/A   Clear
11:35 AM 17.6 °F 1.3 °F 15.8 °F 93% 30.11 in 7.0 mi NNW 19.6 mph - N/A   Clear
11:54 AM 19.4 °F 3.6 °F 17.6 °F 93% 30.12 in 5.0 mi NNW 19.6 mph - N/A   Clear
12:15 PM 19.4 °F 2.5 °F 17.6 °F 93% 30.12 in 5.0 mi NNW 23.0 mph - N/A   Clear
12:34 PM 19.4 °F 3.2 °F 17.6 °F 93% 30.12 in 7.0 mi NNW 20.7 mph - N/A   Clear
12:55 PM 21.2 °F 5.6 °F 19.4 °F 93% 30.14 in 7.0 mi NNW 20.7 mph - N/A   Clear
1:15 PM 21.2 °F 5.2 °F 19.4 °F 93% 30.14 in 7.0 mi NNW 21.9 mph 26.5 mph N/A   Clear
1:34 PM 21.2 °F 4.5 °F 19.4 °F 93% 30.14 in 5.0 mi NNW 24.2 mph - N/A   Clear
1:55 PM 21.2 °F 4.2 °F 19.4 °F 93% 30.15 in 5.0 mi NNW 25.3 mph - N/A   Clear
2:15 PM 21.2 °F 5.6 °F 19.4 °F 93% 30.15 in 7.0 mi NNW 20.7 mph - N/A   Clear
2:34 PM 21.2 °F 4.9 °F 19.4 °F 93% 30.15 in 7.0 mi NNW 23.0 mph - N/A   Clear
2:55 PM 21.2 °F 5.2 °F 19.4 °F 93% 30.16 in 7.0 mi NNW 21.9 mph - N/A   Clear
3:14 PM 21.2 °F 4.2 °F 19.4 °F 93% 30.16 in 7.0 mi NNW 25.3 mph - N/A   Clear
3:34 PM 23.0 °F 7.6 °F 19.4 °F 86% 30.16 in 7.0 mi NNW 21.9 mph - N/A   Clear
3:55 PM 21.2 °F 4.5 °F 19.4 °F 93% 30.17 in 5.0 mi NNW 24.2 mph 28.8 mph N/A   Clear
4:14 PM 23.0 °F 8.3 °F 19.4 °F 86% 30.18 in 10.0 mi NNW 19.6 mph - N/A   Clear
4:35 PM 23.0 °F 8.0 °F 21.2 °F 93% 30.18 in 7.0 mi North 20.7 mph - N/A   Scattered Clouds
4:55 PM 23.0 °F 8.3 °F 19.4 °F 86% 30.19 in 10.0 mi North 19.6 mph - N/A   Scattered Clouds
5:14 PM 21.2 °F 6.4 °F 19.4 °F 93% 30.19 in 10.0 mi NNW 18.4 mph - N/A   Clear
5:35 PM 21.2 °F 5.6 °F 19.4 °F 93% 30.20 in 10.0 mi NNW 20.7 mph - N/A   Scattered Clouds
5:54 PM 21.2 °F 6.0 °F 17.6 °F 86% 30.21 in 10.0 mi NNW 19.6 mph - N/A   Scattered Clouds
6:15 PM 21.2 °F 6.4 °F 17.6 °F 86% 30.22 in 10.0 mi NNW 18.4 mph - N/A   Clear
6:35 PM 19.4 °F 6.6 °F 17.6 °F 93% 30.23 in 10.0 mi NNW 12.7 mph - N/A   Scattered Clouds
6:54 PM 21.2 °F 8.3 °F 19.4 °F 93% 30.24 in 10.0 mi North 13.8 mph - N/A   Mostly Cloudy
7:15 PM 19.4 °F 6.6 °F 17.6 °F 93% 30.24 in 10.0 mi NNW 12.7 mph - N/A   Overcast
7:35 PM 19.4 °F 6.0 °F 17.6 °F 93% 30.25 in 10.0 mi NNW 13.8 mph - N/A   Overcast
7:54 PM 17.6 °F 4.3 °F 17.6 °F 100% 30.26 in 10.0 mi NNW 12.7 mph - N/A   Mostly Cloudy
8:15 PM 17.6 °F 5.7 °F 17.6 °F 100% 30.27 in 10.0 mi NNW 10.4 mph - N/A   Mostly Cloudy
8:35 PM 19.4 °F 7.2 °F 17.6 °F 93% 30.28 in 10.0 mi NNW 11.5 mph - N/A Snow Light Snow
8:54 PM 17.6 °F 5.0 °F 15.8 °F 93% 30.28 in 10.0 mi NNW 11.5 mph - N/A   Mostly Cloudy
9:15 PM 17.6 °F 3.7 °F 15.8 °F 93% 30.28 in 10.0 mi NNW 13.8 mph - N/A   Overcast
9:35 PM 17.6 °F 5.0 °F 15.8 °F 93% 30.28 in 10.0 mi NNW 11.5 mph - N/A   Mostly Cloudy
9:54 PM 15.8 °F 2.7 °F 12.2 °F 86% 30.30 in 10.0 mi NNW 11.5 mph - N/A   Scattered Clouds
10:15 PM 12.2 °F -1.0 °F 12.2 °F 100% 30.30 in 10.0 mi NNW 10.4 mph - N/A   Clear
10:35 PM 10.4 °F -1.5 °F 10.4 °F 100% 30.30 in 10.0 mi NNW 8.1 mph - N/A   Clear
10:54 PM 10.4 °F -2.4 °F 10.4 °F 100% 30.30 in 10.0 mi NNW 9.2 mph - N/A   Clear
11:15 PM 10.4 °F -1.5 °F 8.6 °F 92% 30.30 in 10.0 mi NNW 8.1 mph - N/A   Scattered Clouds
11:35 PM 10.4 °F 0.8 °F 8.6 °F 92% 30.31 in 10.0 mi NW 5.8 mph - N/A   Mostly Cloudy
11:54 PM 8.6 °F -2.6 °F 6.8 °F 92% 30.31 in 10.0 mi NW 6.9 mph - N/A   Scattered Clouds